Aérodrome :
LOGIN :

S'inscrire | Disclaimer

   EN    FR    IT 

 










Légende :    VFR   VFR Marginal   IFR   IFR Intensif   IFR Très Intensif
Visi : 
Plafond : 
>= 8 km
>= 3000ft
5 à 8 km
1000 à 3000 ft
1500m à 5 km
500 à 1000 ft
800 à 1500m
200 à 500 ft
< 800m
< 200 ft
Symboles :   Orages  Brouillard  Fortes neiges  Fortes précipitations  Vent > 20 kt
SIGMETs :   Divers  Orages  Givrage  Turbulence  Onde Orograph.  Cendres Volcan.







- Altitude de l'aérodrome : 74 ft
- Code IATA : LRH
- Voir les cartes d'approche


LFBH - La Rochelle Ile de Ré

DERNIER METAR :
  • 231000Z AUTO 15009KT 9999 FEW013 SCT033 OVC062 08/06 Q1008 TEMPO 4000 -SHRA BKN010 SCT015TCU

METARs EXPIRÉS :
  • 230930Z AUTO 14008KT 110V180 9999 FEW011 BKN060 BKN200 08/06 Q1008 TEMPO 4000 -SHRA BKN010 SCT015TCU
  • 230900Z AUTO 14007KT 110V170 9999 FEW009 SCT030 BKN062 08/06 Q1008 TEMPO 4000 -SHRA BKN010 SCT015TCU
  • 230830Z AUTO 14007KT 9999 BKN033 07/06 Q1007 TEMPO 4000 -SHRA BKN010 SCT015TCU
  • 230800Z AUTO 14007KT 9999 SCT039 SCT210 06/06 Q1007 TEMPO 4000 -SHRA BKN010 SCT015TCU
  • 230730Z AUTO 11004KT 9999 FEW025 SCT062 BKN076 05/04 Q1007 TEMPO 4000 -SHRA BKN010 SCT015TCU

TAF TAF LFBH
Valide du 23 à 06h jusqu'au 24 à 06h UTC


230500Z 2306/2406 15005KT 9999 BKN020
TEMPO 2306/2318 4000 -SHRA BKN010 SCT015TCU
ATIS : +33 5 46 00 13 92
Pas de NOTAMs connus pour ce terrain.



MET'MAP, la Météo Aéronautique d'un coup d'oeil ! - Copyright ORBIFLY Décembre 2007 - Disclaimer

ORBIFLY MET'MAP TEAM :

Programmation & Développement : Alexandra Zaïnal
Conception & Développement : Baudouin d'Aumeries
Co-Programmation & Développement : Marc-Olivier Méhu
Soutien technique & logistique : Manuel Goepfert

Contact : metmap@orbifly.com




SOURCES & CREDITS :

   NOAA